createdAt,value
2017-10-06T00:00:37.351Z,85.10
2017-10-06T00:01:37.352Z,86.18
2017-10-06T00:02:37.353Z,86.18
2017-10-06T00:03:37.352Z,85.95
2017-10-06T00:04:37.353Z,86.28
2017-10-06T00:05:37.358Z,86.09
2017-10-06T00:06:37.355Z,85.14
2017-10-06T00:07:37.354Z,85.42
2017-10-06T00:08:37.356Z,86.18
2017-10-06T00:09:37.362Z,85.99
2017-10-06T00:10:37.356Z,84.56
2017-10-06T00:11:37.658Z,84.28
2017-10-06T00:12:37.357Z,84.91
2017-10-06T00:13:37.358Z,84.43
2017-10-06T00:14:37.362Z,84.24
2017-10-06T00:15:37.358Z,84.81
2017-10-06T00:16:37.610Z,84.43
2017-10-06T00:17:37.361Z,83.29
2017-10-06T00:18:37.361Z,83.19
2017-10-06T00:19:37.361Z,83.86
2017-10-06T00:20:37.362Z,84.14
2017-10-06T00:21:37.361Z,84.52
2017-10-06T00:22:37.362Z,83.48
2017-10-06T00:23:37.363Z,83.39
2017-10-06T00:24:37.363Z,84.05
2017-10-06T00:25:37.363Z,83.76
2017-10-06T00:26:37.367Z,85.28
2017-10-06T00:27:37.364Z,85.76
2017-10-06T00:28:37.364Z,86.71
2017-10-06T00:29:37.365Z,86.14
2017-10-06T00:30:37.389Z,86.99
2017-10-06T00:31:37.366Z,85.00
2017-10-06T00:32:37.366Z,86.33
2017-10-06T00:33:37.366Z,85.95
2017-10-06T00:34:37.367Z,84.24
2017-10-06T00:35:37.367Z,85.00
2017-10-06T00:36:37.368Z,84.24
2017-10-06T00:37:37.371Z,83.48
2017-10-06T00:38:37.370Z,83.58
2017-10-06T00:39:37.386Z,83.76
2017-10-06T00:40:37.367Z,84.24
2017-10-06T00:41:37.368Z,84.24
2017-10-06T00:42:37.369Z,83.86
2017-10-06T00:43:37.369Z,84.24
2017-10-06T00:44:37.369Z,85.00
2017-10-06T00:45:37.370Z,85.57
2017-10-06T00:46:37.369Z,85.19
2017-10-06T00:47:37.370Z,83.39
2017-10-06T00:48:37.371Z,84.24
2017-10-06T00:49:37.371Z,83.95
2017-10-06T00:50:37.379Z,83.10
2017-10-06T00:51:37.371Z,82.91
2017-10-06T00:52:37.370Z,82.57
2017-10-06T00:53:37.372Z,83.29
2017-10-06T00:54:37.373Z,84.47
2017-10-06T00:55:37.371Z,84.43
2017-10-06T00:56:37.373Z,82.62
2017-10-06T00:57:37.373Z,83.00
2017-10-06T00:58:37.373Z,83.48
2017-10-06T00:59:37.373Z,83.39
2017-10-06T01:00:37.373Z,85.19
2017-10-06T01:01:37.374Z,86.43
2017-10-06T01:02:37.373Z,86.43
2017-10-06T01:03:37.374Z,86.33
2017-10-06T01:04:37.374Z,85.95
2017-10-06T01:05:37.373Z,86.33
2017-10-06T01:06:37.376Z,86.99
2017-10-06T01:07:37.374Z,86.80
2017-10-06T01:08:37.375Z,86.90
2017-10-06T01:09:37.375Z,87.28
2017-10-06T01:10:37.375Z,88.13
2017-10-06T01:11:37.374Z,87.38
2017-10-06T01:12:37.376Z,87.66
2017-10-06T01:13:37.376Z,86.90
2017-10-06T01:14:37.377Z,85.00
2017-10-06T01:15:37.377Z,84.62
2017-10-06T01:16:37.376Z,83.48
2017-10-06T01:17:37.377Z,84.52
2017-10-06T01:18:37.377Z,85.19
2017-10-06T01:19:37.377Z,86.05
2017-10-06T01:20:37.377Z,85.38
2017-10-06T01:21:37.377Z,86.05
2017-10-06T01:22:37.379Z,86.24
2017-10-06T01:23:37.377Z,86.33
2017-10-06T01:24:37.378Z,85.86
2017-10-06T01:25:37.377Z,85.91
2017-10-06T01:26:37.378Z,87.05
2017-10-06T01:27:37.378Z,86.05
2017-10-06T01:28:37.379Z,86.43
2017-10-06T01:29:37.378Z,85.95
2017-10-06T01:30:37.377Z,85.38
2017-10-06T01:31:37.378Z,83.39
2017-10-06T01:32:37.378Z,83.48
2017-10-06T01:33:37.379Z,84.05
2017-10-06T01:34:37.378Z,83.48
2017-10-06T01:35:37.378Z,83.39
2017-10-06T01:36:37.380Z,83.39
2017-10-06T01:37:37.379Z,83.67
2017-10-06T01:38:37.379Z,83.29
2017-10-06T01:39:37.379Z,83.48
2017-10-06T01:40:37.380Z,83.00
2017-10-06T01:41:37.380Z,83.19
2017-10-06T01:42:37.379Z,83.10
2017-10-06T01:43:37.379Z,83.29
2017-10-06T01:44:37.379Z,83.19
2017-10-06T01:45:37.378Z,83.86
2017-10-06T01:46:37.382Z,83.19
2017-10-06T01:47:37.379Z,82.53
2017-10-06T01:48:37.380Z,82.53
2017-10-06T01:49:37.380Z,82.62
2017-10-06T01:50:37.380Z,82.43
2017-10-06T01:51:37.380Z,81.86
2017-10-06T01:52:37.379Z,81.58
2017-10-06T01:53:37.379Z,81.96
2017-10-06T01:54:37.380Z,83.00
2017-10-06T01:55:37.380Z,82.62
2017-10-06T01:56:37.379Z,82.81
2017-10-06T01:57:37.379Z,82.34
2017-10-06T01:58:37.381Z,82.43
2017-10-06T01:59:37.379Z,83.00
2017-10-06T02:00:37.382Z,83.39
2017-10-06T02:01:37.380Z,83.00
2017-10-06T02:02:37.380Z,83.67
2017-10-06T02:03:37.379Z,83.76
2017-10-06T02:04:37.382Z,83.00
2017-10-06T02:05:37.380Z,83.00
2017-10-06T02:06:37.380Z,84.52
2017-10-06T02:07:37.378Z,84.24
2017-10-06T02:08:37.378Z,83.29
2017-10-06T02:09:37.379Z,83.67
2017-10-06T02:10:37.379Z,84.43
2017-10-06T02:11:37.379Z,83.58
2017-10-06T02:12:37.379Z,84.43
2017-10-06T02:13:37.379Z,85.38
2017-10-06T02:14:37.380Z,84.43
2017-10-06T02:15:37.379Z,84.52
2017-10-06T02:16:37.379Z,84.24
2017-10-06T02:17:37.379Z,84.14
2017-10-06T02:18:37.378Z,84.52
2017-10-06T02:19:37.378Z,84.33
2017-10-06T02:20:37.379Z,82.43
2017-10-06T02:21:37.377Z,83.00
2017-10-06T02:22:37.379Z,82.05
2017-10-06T02:23:37.379Z,82.15
2017-10-06T02:24:37.378Z,83.29
2017-10-06T02:25:37.378Z,83.10
2017-10-06T02:26:37.379Z,81.29
2017-10-06T02:27:37.378Z,79.11
2017-10-06T02:28:37.378Z,79.96
2017-10-06T02:29:37.378Z,79.30
2017-10-06T02:30:37.378Z,79.96
2017-10-06T02:31:37.378Z,78.91
2017-10-06T02:32:37.377Z,79.11
2017-10-06T02:33:37.377Z,78.06
2017-10-06T02:34:37.379Z,79.49
2017-10-06T02:35:37.377Z,79.39
2017-10-06T02:36:37.378Z,80.82
2017-10-06T02:37:37.382Z,79.68
2017-10-06T02:38:37.377Z,81.29
2017-10-06T02:39:37.377Z,82.10
2017-10-06T02:40:37.377Z,81.96
2017-10-06T02:41:37.377Z,83.44
2017-10-06T02:42:37.377Z,82.77
2017-10-06T02:43:37.376Z,83.10
2017-10-06T02:44:37.376Z,83.76
2017-10-06T02:45:37.376Z,83.10
2017-10-06T02:46:37.376Z,83.25
2017-10-06T02:47:37.382Z,83.34
2017-10-06T02:48:37.375Z,83.76
2017-10-06T02:49:37.374Z,83.39
2017-10-06T02:50:37.375Z,83.39
2017-10-06T02:51:37.374Z,82.05
2017-10-06T02:52:37.374Z,81.48
2017-10-06T02:53:37.375Z,81.38
2017-10-06T02:54:37.391Z,80.53
2017-10-06T02:55:37.373Z,79.11
2017-10-06T02:56:37.374Z,79.49
2017-10-06T02:57:37.373Z,79.49
2017-10-06T02:58:37.374Z,80.72
2017-10-06T02:59:37.373Z,81.58
2017-10-06T03:00:37.372Z,82.53
2017-10-06T03:01:37.372Z,82.53
2017-10-06T03:02:37.373Z,82.20
2017-10-06T03:03:37.372Z,82.39
2017-10-06T03:04:37.372Z,82.29
2017-10-06T03:05:37.372Z,81.82
2017-10-06T03:06:37.372Z,82.96
2017-10-06T03:07:37.371Z,84.29
2017-10-06T03:08:37.371Z,84.77
2017-10-06T03:09:37.370Z,84.67
2017-10-06T03:10:37.371Z,84.48
2017-10-06T03:11:37.370Z,84.48
2017-10-06T03:12:37.369Z,84.77
2017-10-06T03:13:37.369Z,86.19
2017-10-06T03:14:37.369Z,84.67
2017-10-06T03:15:37.367Z,84.48
2017-10-06T03:16:37.368Z,85.05
2017-10-06T03:17:37.368Z,84.95
2017-10-06T03:18:37.369Z,85.43
2017-10-06T03:19:37.367Z,84.43
2017-10-06T03:20:37.366Z,83.91
2017-10-06T03:21:37.366Z,84.81
2017-10-06T03:22:37.367Z,82.91
2017-10-06T03:23:37.364Z,82.15
2017-10-06T03:24:37.364Z,82.62
2017-10-06T03:25:37.365Z,82.34
2017-10-06T03:26:37.364Z,82.91
2017-10-06T03:27:37.364Z,81.96
2017-10-06T03:28:37.364Z,81.20
2017-10-06T03:29:37.363Z,81.86
2017-10-06T03:30:37.363Z,82.81
2017-10-06T03:31:37.364Z,82.24
2017-10-06T03:32:37.361Z,81.54
2017-10-06T03:33:37.362Z,82.15
2017-10-06T03:34:37.362Z,82.29
2017-10-06T03:35:37.360Z,83.06
2017-10-06T03:36:37.361Z,83.82
2017-10-06T03:37:37.361Z,84.10
2017-10-06T03:38:37.360Z,84.48
2017-10-06T03:39:37.363Z,83.62
2017-10-06T03:40:37.359Z,84.39
2017-10-06T03:41:37.359Z,84.77
2017-10-06T03:42:37.360Z,84.67
2017-10-06T03:43:37.359Z,83.15
2017-10-06T03:44:37.359Z,83.34
2017-10-06T03:45:37.358Z,83.62
2017-10-06T03:46:37.358Z,84.01
2017-10-06T03:47:37.357Z,85.15
2017-10-06T03:48:37.356Z,84.48
2017-10-06T03:49:37.357Z,83.25
2017-10-06T03:50:37.357Z,83.06
2017-10-06T03:51:37.355Z,83.44
2017-10-06T03:52:37.356Z,83.15
2017-10-06T03:53:37.355Z,83.06
2017-10-06T03:54:37.355Z,83.53
2017-10-06T03:55:37.354Z,84.01
2017-10-06T03:56:37.353Z,84.20
2017-10-06T03:57:37.353Z,84.39
2017-10-06T03:58:37.355Z,84.48
2017-10-06T03:59:37.352Z,83.15
2017-10-06T04:00:37.352Z,82.20
2017-10-06T04:01:37.350Z,83.15
2017-10-06T04:02:37.351Z,84.20
2017-10-06T04:03:37.349Z,85.34
2017-10-06T04:04:37.350Z,85.15
2017-10-06T04:05:37.348Z,85.05
2017-10-06T04:06:37.348Z,85.15
2017-10-06T04:07:37.347Z,86.00
2017-10-06T04:08:37.348Z,86.00
2017-10-06T04:09:37.347Z,86.29
2017-10-06T04:10:37.345Z,86.00
2017-10-06T04:11:37.344Z,86.53
2017-10-06T04:12:37.344Z,86.34
2017-10-06T04:13:37.343Z,87.01
2017-10-06T04:14:37.341Z,86.63
2017-10-06T04:15:37.341Z,86.82
2017-10-06T04:16:37.340Z,87.48
2017-10-06T04:17:37.343Z,87.86
2017-10-06T04:18:37.340Z,88.34
2017-10-06T04:19:37.341Z,88.00
2017-10-06T04:20:37.339Z,87.24
2017-10-06T04:21:37.338Z,87.90
2017-10-06T04:22:37.338Z,88.57
2017-10-06T04:23:37.336Z,87.90
2017-10-06T04:24:37.336Z,88.09
2017-10-06T04:25:37.336Z,88.47
2017-10-06T04:26:37.335Z,88.57
2017-10-06T04:27:37.334Z,88.76
2017-10-06T04:28:37.336Z,89.61
2017-10-06T04:29:37.332Z,89.52
2017-10-06T04:30:37.332Z,89.23
2017-10-06T04:31:37.332Z,89.33
2017-10-06T04:32:37.331Z,90.19
2017-10-06T04:33:37.329Z,90.47
2017-10-06T04:34:37.331Z,89.61
2017-10-06T04:35:37.328Z,89.33
2017-10-06T04:36:37.328Z,88.95
2017-10-06T04:37:37.328Z,88.57
2017-10-06T04:38:37.326Z,88.57
2017-10-06T04:39:37.326Z,88.85
2017-10-06T04:40:37.326Z,88.47
2017-10-06T04:41:37.325Z,88.28
2017-10-06T04:42:37.325Z,89.23
2017-10-06T04:43:37.324Z,88.95
2017-10-06T04:44:37.324Z,87.14
2017-10-06T04:45:37.322Z,87.24
2017-10-06T04:46:37.323Z,87.62
2017-10-06T04:47:37.320Z,87.52
2017-10-06T04:48:37.321Z,86.67
2017-10-06T04:49:37.320Z,87.62
2017-10-06T04:50:37.319Z,87.90
2017-10-06T04:51:37.318Z,88.38
2017-10-06T04:52:37.322Z,87.43
2017-10-06T04:53:37.316Z,87.05
2017-10-06T04:54:37.317Z,87.34
2017-10-06T04:55:37.316Z,87.52
2017-10-06T04:56:37.314Z,88.67
2017-10-06T04:57:37.315Z,87.14
2017-10-06T04:58:37.314Z,86.76
2017-10-06T04:59:37.316Z,87.34
2017-10-06T05:00:37.317Z,87.57
2017-10-06T05:01:37.312Z,87.76
2017-10-06T05:02:37.310Z,87.38
2017-10-06T05:03:37.309Z,86.05
2017-10-06T05:04:37.310Z,87.01
2017-10-06T05:05:37.309Z,87.48
2017-10-06T05:06:37.308Z,88.24
2017-10-06T05:07:37.307Z,87.95
2017-10-06T05:08:37.306Z,87.86
2017-10-06T05:09:37.307Z,88.15
2017-10-06T05:10:37.304Z,88.34
2017-10-06T05:11:37.304Z,88.43
2017-10-06T05:12:37.303Z,88.15
2017-10-06T05:13:37.302Z,88.15
2017-10-06T05:14:37.302Z,88.28
2017-10-06T05:15:37.301Z,87.86
2017-10-06T05:16:37.299Z,87.76
2017-10-06T05:17:37.299Z,87.67
2017-10-06T05:18:37.307Z,86.91
2017-10-06T05:19:37.297Z,86.24
2017-10-06T05:20:37.297Z,86.43
2017-10-06T05:21:37.296Z,86.63
2017-10-06T05:22:37.295Z,86.53
2017-10-06T05:23:37.294Z,86.63
2017-10-06T05:24:37.292Z,87.10
2017-10-06T05:25:37.292Z,87.29
2017-10-06T05:26:37.292Z,87.38
2017-10-06T05:27:37.289Z,87.29
2017-10-06T05:28:37.288Z,87.10
2017-10-06T05:29:37.288Z,87.19
2017-10-06T05:30:37.289Z,88.05
2017-10-06T05:31:37.286Z,88.24
2017-10-06T05:32:37.285Z,87.48
2017-10-06T05:33:37.285Z,86.34
2017-10-06T05:34:37.284Z,85.68
2017-10-06T05:35:37.281Z,86.24
2017-10-06T05:36:37.282Z,86.05
2017-10-06T05:37:37.281Z,85.77
2017-10-06T05:38:37.280Z,86.63
2017-10-06T05:39:37.278Z,85.58
2017-10-06T05:40:37.278Z,86.82
2017-10-06T05:41:37.278Z,86.63
2017-10-06T05:42:37.275Z,86.82
2017-10-06T05:43:37.275Z,86.82
2017-10-06T05:44:37.273Z,86.24
2017-10-06T05:45:37.272Z,86.05
2017-10-06T05:46:37.273Z,86.63
2017-10-06T05:47:37.270Z,86.82
2017-10-06T05:48:37.270Z,85.77
2017-10-06T05:49:37.269Z,85.86
2017-10-06T05:50:37.268Z,86.34
2017-10-06T05:51:37.267Z,86.72
2017-10-06T05:52:37.264Z,86.82
2017-10-06T05:53:37.265Z,86.63
2017-10-06T05:54:37.262Z,86.24
2017-10-06T05:55:37.262Z,85.96
2017-10-06T05:56:37.262Z,85.96
2017-10-06T05:57:37.261Z,86.34
2017-10-06T05:58:37.259Z,85.77
2017-10-06T05:59:37.258Z,85.77
2017-10-06T06:00:37.257Z,86.43
2017-10-06T06:01:37.257Z,85.96
2017-10-06T06:02:37.255Z,85.77
2017-10-06T06:03:37.254Z,85.77
2017-10-06T06:04:37.252Z,86.43
2017-10-06T06:05:37.252Z,85.68
2017-10-06T06:06:37.252Z,86.05
2017-10-06T06:07:37.249Z,86.15
2017-10-06T06:08:37.247Z,85.68
2017-10-06T06:09:37.247Z,85.77
2017-10-06T06:10:37.250Z,86.34
2017-10-06T06:11:37.245Z,86.63
2017-10-06T06:12:37.244Z,86.15
2017-10-06T06:13:37.243Z,86.24
2017-10-06T06:14:37.244Z,85.20
2017-10-06T06:15:37.242Z,85.20
2017-10-06T06:16:37.241Z,84.16
2017-10-06T06:17:37.243Z,85.11
2017-10-06T06:18:37.240Z,86.43
2017-10-06T06:19:37.238Z,85.77
2017-10-06T06:20:37.237Z,84.63
2017-10-06T06:21:37.236Z,85.11
2017-10-06T06:22:37.236Z,85.77
2017-10-06T06:23:37.235Z,84.53
2017-10-06T06:24:37.233Z,84.34
2017-10-06T06:25:37.237Z,85.30
2017-10-06T06:26:37.233Z,85.77
2017-10-06T06:27:37.230Z,86.82
2017-10-06T06:28:37.230Z,87.29
2017-10-06T06:29:37.230Z,86.91
2017-10-06T06:30:37.229Z,87.01
2017-10-06T06:31:37.253Z,86.82
2017-10-06T06:32:37.230Z,86.24
2017-10-06T06:33:37.225Z,85.77
2017-10-06T06:34:37.225Z,85.11
2017-10-06T06:35:37.224Z,85.77
2017-10-06T06:36:37.222Z,86.53
2017-10-06T06:37:37.227Z,85.96
2017-10-06T06:38:37.221Z,86.43
2017-10-06T06:39:37.220Z,86.24
2017-10-06T06:40:37.219Z,87.19
2017-10-06T06:41:37.217Z,86.91
2017-10-06T06:42:37.216Z,86.43
2017-10-06T06:43:37.216Z,86.15
2017-10-06T06:44:37.215Z,87.01
2017-10-06T06:45:37.215Z,85.58
2017-10-06T06:46:37.213Z,85.30
2017-10-06T06:47:37.212Z,84.25
2017-10-06T06:48:37.211Z,83.20
2017-10-06T06:49:37.209Z,83.97
2017-10-06T06:50:37.209Z,84.25
2017-10-06T06:51:37.207Z,84.34
2017-10-06T06:52:37.207Z,84.25
2017-10-06T06:53:37.206Z,84.06
2017-10-06T06:54:37.261Z,84.53
2017-10-06T06:55:37.203Z,84.06
2017-10-06T06:56:37.202Z,84.25
2017-10-06T06:57:37.203Z,84.53
2017-10-06T06:58:37.201Z,84.72
2017-10-06T06:59:37.199Z,84.25
2017-10-06T07:00:37.198Z,84.91
2017-10-06T07:01:37.199Z,84.91
2017-10-06T07:02:37.198Z,84.82
2017-10-06T07:03:37.196Z,84.82
2017-10-06T07:04:37.195Z,84.34
2017-10-06T07:05:37.194Z,86.15
2017-10-06T07:06:37.193Z,85.68
2017-10-06T07:07:37.191Z,84.91
2017-10-06T07:08:37.190Z,84.72
2017-10-06T07:09:37.189Z,84.63
2017-10-06T07:10:37.189Z,85.11
2017-10-06T07:11:37.187Z,84.53
2017-10-06T07:12:37.186Z,84.25
2017-10-06T07:13:37.185Z,84.72
2017-10-06T07:14:37.185Z,84.72
2017-10-06T07:15:37.184Z,83.97
2017-10-06T07:16:37.183Z,83.11
2017-10-06T07:17:37.181Z,83.97
2017-10-06T07:18:37.181Z,83.97
2017-10-06T07:19:37.177Z,83.78
2017-10-06T07:20:37.178Z,83.59
2017-10-06T07:21:37.178Z,82.64
2017-10-06T07:22:37.176Z,82.54
2017-10-06T07:23:37.175Z,83.11
2017-10-06T07:24:37.174Z,83.87
2017-10-06T07:25:37.173Z,83.59
2017-10-06T07:26:37.171Z,83.30
2017-10-06T07:27:37.169Z,83.49
2017-10-06T07:28:37.169Z,83.97
2017-10-06T07:29:37.169Z,83.30
2017-10-06T07:30:37.168Z,84.34
2017-10-06T07:31:37.166Z,83.68
2017-10-06T07:32:37.164Z,83.87
2017-10-06T07:33:37.164Z,82.92
2017-10-06T07:34:37.163Z,83.11
2017-10-06T07:35:37.162Z,84.25
2017-10-06T07:36:37.159Z,84.63
2017-10-06T07:37:37.166Z,84.91
2017-10-06T07:38:37.160Z,85.39
2017-10-06T07:39:37.155Z,84.53
2017-10-06T07:40:37.155Z,84.91
2017-10-06T07:41:37.155Z,84.91
2017-10-06T07:42:37.154Z,84.53
2017-10-06T07:43:37.151Z,84.44
2017-10-06T07:44:37.151Z,84.44
2017-10-06T07:45:37.150Z,84.34
2017-10-06T07:46:37.149Z,84.44
2017-10-06T07:47:37.147Z,82.64
2017-10-06T07:48:37.148Z,82.64
2017-10-06T07:49:37.145Z,83.44
2017-10-06T07:50:37.147Z,83.82
2017-10-06T07:51:37.142Z,83.06
2017-10-06T07:52:37.142Z,83.01
2017-10-06T07:53:37.139Z,83.15
2017-10-06T07:54:37.139Z,83.34
2017-10-06T07:55:37.343Z,83.34
2017-10-06T07:56:37.452Z,83.62
2017-10-06T07:57:37.343Z,84.01
2017-10-06T07:58:37.316Z,83.34
2017-10-06T07:59:37.351Z,83.44
2017-10-06T08:00:37.132Z,83.82
2017-10-06T08:01:37.132Z,84.67
2017-10-06T08:02:37.133Z,84.48
2017-10-06T08:03:37.128Z,83.44
2017-10-06T08:04:37.129Z,83.06
2017-10-06T08:05:37.128Z,83.25
2017-10-06T08:06:37.127Z,83.06
2017-10-06T08:07:37.125Z,81.92
2017-10-06T08:08:37.125Z,82.29
2017-10-06T08:09:37.125Z,82.20
2017-10-06T08:10:37.125Z,81.63
2017-10-06T08:11:37.123Z,81.29
2017-10-06T08:12:37.120Z,81.06
2017-10-06T08:13:37.121Z,82.91
2017-10-06T08:14:37.178Z,81.73
2017-10-06T08:15:37.120Z,80.87
2017-10-06T08:16:37.118Z,80.87
2017-10-06T08:17:37.119Z,80.63
2017-10-06T08:18:37.117Z,79.96
2017-10-06T08:19:37.116Z,80.82
2017-10-06T08:20:37.116Z,81.29
2017-10-06T08:21:37.116Z,80.68
2017-10-06T08:22:37.117Z,81.25
2017-10-06T08:23:37.120Z,81.82
2017-10-06T08:24:37.113Z,80.53
2017-10-06T08:25:37.112Z,80.68
2017-10-06T08:26:37.113Z,80.68
2017-10-06T08:27:37.111Z,80.49
2017-10-06T08:28:37.108Z,80.49
2017-10-06T08:29:37.109Z,82.15
2017-10-06T08:30:37.109Z,81.96
2017-10-06T08:31:37.108Z,81.96
2017-10-06T08:32:37.106Z,81.48
2017-10-06T08:33:37.106Z,81.38
2017-10-06T08:34:37.105Z,81.67
2017-10-06T08:35:37.105Z,80.91
2017-10-06T08:36:37.107Z,79.77
2017-10-06T08:37:37.104Z,79.96
2017-10-06T08:38:37.103Z,79.39
2017-10-06T08:39:37.102Z,79.39
2017-10-06T08:40:37.101Z,79.20
2017-10-06T08:41:37.101Z,79.11
2017-10-06T08:42:37.101Z,79.49
2017-10-06T08:43:37.100Z,77.81
2017-10-06T08:44:37.099Z,75.91
2017-10-06T08:45:37.099Z,74.67
2017-10-06T08:46:37.098Z,74.04
2017-10-06T08:47:37.098Z,73.85
2017-10-06T08:48:37.098Z,73.95
2017-10-06T08:49:37.096Z,74.04
2017-10-06T08:50:37.097Z,74.27
2017-10-06T08:51:37.097Z,71.89
2017-10-06T08:52:37.100Z,71.32
2017-10-06T08:53:37.097Z,71.93
2017-10-06T08:54:37.098Z,70.27
2017-10-06T08:55:37.098Z,69.60
2017-10-06T08:56:37.098Z,69.51
2017-10-06T08:57:37.099Z,68.37
2017-10-06T08:58:37.100Z,69.67
2017-10-06T08:59:37.100Z,69.57
2017-10-06T09:00:37.099Z,69.00
2017-10-06T09:01:37.102Z,68.24
2017-10-06T09:02:37.102Z,68.81
2017-10-06T09:03:37.102Z,69.10
2017-10-06T09:04:37.103Z,69.19
2017-10-06T09:05:37.104Z,68.81
2017-10-06T09:06:37.105Z,68.62
2017-10-06T09:07:37.126Z,68.24
2017-10-06T09:08:37.105Z,67.76
2017-10-06T09:09:37.106Z,67.13
2017-10-06T09:10:37.110Z,66.75
2017-10-06T09:11:37.106Z,64.37
2017-10-06T09:12:37.107Z,66.46
2017-10-06T09:13:37.110Z,64.75
2017-10-06T09:14:37.110Z,65.70
2017-10-06T09:15:37.109Z,66.27
2017-10-06T09:16:37.110Z,64.94
2017-10-06T09:17:37.110Z,66.94
2017-10-06T09:18:37.112Z,67.32
2017-10-06T09:19:37.112Z,65.70
2017-10-06T09:20:37.112Z,66.78
2017-10-06T09:21:37.114Z,66.88
2017-10-06T09:22:37.113Z,63.83
2017-10-06T09:23:37.114Z,64.40
2017-10-06T09:24:37.115Z,64.50
2017-10-06T09:25:37.118Z,64.87
2017-10-06T09:26:37.117Z,63.83
2017-10-06T09:27:37.117Z,62.88
2017-10-06T09:28:37.118Z,62.68
2017-10-06T09:29:37.119Z,64.31
2017-10-06T09:30:37.119Z,61.93
2017-10-06T09:31:37.121Z,61.45
2017-10-06T09:32:37.120Z,60.97
2017-10-06T09:33:37.121Z,61.64
2017-10-06T09:34:37.124Z,61.19
2017-10-06T09:35:37.123Z,60.14
2017-10-06T09:36:37.126Z,59.48
2017-10-06T09:37:37.123Z,57.38
2017-10-06T09:38:37.145Z,55.76
2017-10-06T09:39:37.125Z,53.09
2017-10-06T09:40:37.127Z,53.28
2017-10-06T09:41:37.129Z,54.43
2017-10-06T09:42:37.135Z,55.50
2017-10-06T09:43:37.130Z,52.64
2017-10-06T09:44:37.130Z,53.41
2017-10-06T09:45:37.136Z,53.72
2017-10-06T09:46:37.134Z,52.19
2017-10-06T09:47:37.136Z,50.31
2017-10-06T09:48:37.137Z,50.98
2017-10-06T09:49:37.140Z,50.62
2017-10-06T09:50:37.144Z,47.68
2017-10-06T09:51:37.144Z,45.58
2017-10-06T09:52:37.147Z,46.27
2017-10-06T09:53:37.150Z,43.80
2017-10-06T09:54:37.155Z,43.71
2017-10-06T09:55:37.155Z,43.62
2017-10-06T09:56:37.159Z,43.30
2017-10-06T09:57:37.164Z,43.69
2017-10-06T09:58:37.167Z,44.62
2017-10-06T09:59:37.171Z,45.08
2017-10-06T10:00:37.174Z,47.18
2017-10-06T10:01:37.179Z,45.70
2017-10-06T10:02:37.185Z,42.37
2017-10-06T10:03:37.187Z,44.17
2017-10-06T10:04:37.192Z,45.15
2017-10-06T10:05:37.199Z,45.31
2017-10-06T10:06:37.201Z,44.17
2017-10-06T10:07:37.205Z,46.82
2017-10-06T10:08:37.210Z,47.56
2017-10-06T10:09:37.216Z,48.30
2017-10-06T10:10:37.220Z,49.44
2017-10-06T10:11:37.222Z,51.90
2017-10-06T10:12:37.227Z,53.81
2017-10-06T10:13:37.233Z,54.77
2017-10-06T10:14:37.236Z,54.17
2017-10-06T10:15:37.242Z,53.78
2017-10-06T10:16:37.245Z,54.36
2017-10-06T10:17:37.248Z,54.24
2017-10-06T10:18:37.253Z,54.71
2017-10-06T10:19:37.255Z,54.80
2017-10-06T10:20:37.258Z,56.14
2017-10-06T10:21:37.263Z,55.35
2017-10-06T10:22:37.267Z,55.07
2017-10-06T10:23:37.268Z,55.54
2017-10-06T10:24:37.273Z,55.73
2017-10-06T10:25:37.274Z,56.87
2017-10-06T10:26:37.277Z,56.68
2017-10-06T10:27:37.279Z,56.59
2017-10-06T10:28:37.281Z,56.49
2017-10-06T10:29:37.283Z,56.49
2017-10-06T10:30:37.286Z,56.40
2017-10-06T10:31:37.288Z,57.26
2017-10-06T10:32:37.290Z,57.26
2017-10-06T10:33:37.293Z,56.11
2017-10-06T10:34:37.294Z,57.45
2017-10-06T10:35:37.295Z,57.07
2017-10-06T10:36:37.302Z,57.45
2017-10-06T10:37:37.307Z,57.26
2017-10-06T10:38:37.301Z,56.49
2017-10-06T10:39:37.304Z,56.85
2017-10-06T10:40:37.305Z,57.89
2017-10-06T10:41:37.307Z,57.26
2017-10-06T10:42:37.309Z,57.54
2017-10-06T10:43:37.310Z,57.92
2017-10-06T10:44:37.312Z,58.11
2017-10-06T10:45:37.313Z,57.54
2017-10-06T10:46:37.315Z,57.64
2017-10-06T10:47:37.316Z,57.54
2017-10-06T10:48:37.318Z,59.54
2017-10-06T10:49:37.319Z,59.45
2017-10-06T10:50:37.332Z,59.32
2017-10-06T10:51:37.321Z,59.64
2017-10-06T10:52:37.322Z,60.75
2017-10-06T10:53:37.324Z,60.56
2017-10-06T10:54:37.326Z,59.13
2017-10-06T10:55:37.348Z,59.32
2017-10-06T10:56:37.329Z,60.66
2017-10-06T10:57:37.329Z,60.37
2017-10-06T10:58:37.330Z,60.94
2017-10-06T10:59:37.330Z,60.85
2017-10-06T11:00:37.333Z,61.22
2017-10-06T11:01:37.335Z,62.56
2017-10-06T11:02:37.335Z,62.18
2017-10-06T11:03:37.336Z,62.18
2017-10-06T11:04:37.336Z,62.46
2017-10-06T11:05:37.339Z,62.08
2017-10-06T11:06:37.339Z,62.30
2017-10-06T11:07:37.341Z,62.27
2017-10-06T11:08:37.340Z,60.56
2017-10-06T11:09:37.342Z,59.80
2017-10-06T11:10:37.343Z,60.66
2017-10-06T11:11:37.344Z,60.56
2017-10-06T11:12:37.346Z,61.64
2017-10-06T11:13:37.347Z,60.78
2017-10-06T11:14:37.348Z,61.25
2017-10-06T11:15:37.349Z,61.25
2017-10-06T11:16:37.350Z,60.75
2017-10-06T11:17:37.350Z,60.75
2017-10-06T11:18:37.353Z,61.51
2017-10-06T11:19:37.354Z,61.42
2017-10-06T11:20:37.354Z,61.61
2017-10-06T11:21:37.357Z,60.85
2017-10-06T11:22:37.361Z,60.85
2017-10-06T11:23:37.358Z,61.51
2017-10-06T11:24:37.359Z,61.42
2017-10-06T11:25:37.359Z,62.27
2017-10-06T11:26:37.362Z,63.35
2017-10-06T11:27:37.362Z,62.30
2017-10-06T11:28:37.362Z,63.64
2017-10-06T11:29:37.364Z,62.88
2017-10-06T11:30:37.365Z,61.64
2017-10-06T11:31:37.366Z,60.97
2017-10-06T11:32:37.367Z,61.16
2017-10-06T11:33:37.367Z,61.64
2017-10-06T11:34:37.370Z,61.83
2017-10-06T11:35:37.371Z,63.73
2017-10-06T11:36:37.371Z,62.62
2017-10-06T11:37:37.373Z,61.48
2017-10-06T11:38:37.374Z,61.48
2017-10-06T11:39:37.376Z,60.52
2017-10-06T11:40:37.377Z,60.81
2017-10-06T11:41:37.379Z,60.52
2017-10-06T11:42:37.380Z,60.49
2017-10-06T11:43:37.382Z,60.81
2017-10-06T11:44:37.383Z,61.38
2017-10-06T11:45:37.383Z,60.40
2017-10-06T11:46:37.386Z,59.83
2017-10-06T11:47:37.386Z,59.83
2017-10-06T11:48:37.389Z,60.02
2017-10-06T11:49:37.391Z,60.21
2017-10-06T11:50:37.396Z,61.61
2017-10-06T11:51:37.393Z,60.56
2017-10-06T11:52:37.394Z,60.75
2017-10-06T11:53:37.396Z,60.91
2017-10-06T11:54:37.396Z,62.78
2017-10-06T11:55:37.398Z,64.02
2017-10-06T11:56:37.402Z,64.31
2017-10-06T11:57:37.400Z,64.31
2017-10-06T11:58:37.401Z,64.87
2017-10-06T11:59:37.399Z,65.54
2017-10-06T12:00:37.401Z,64.78
2017-10-06T12:01:37.403Z,64.21
2017-10-06T12:02:37.407Z,64.78
2017-10-06T12:03:37.403Z,64.59
2017-10-06T12:04:37.403Z,65.06
2017-10-06T12:05:37.405Z,64.69
2017-10-06T12:06:37.405Z,65.25
2017-10-06T12:07:37.406Z,64.97
2017-10-06T12:08:37.407Z,64.31
2017-10-06T12:09:37.406Z,64.40
2017-10-06T12:10:37.412Z,64.21
2017-10-06T12:11:37.408Z,63.35
2017-10-06T12:12:37.408Z,63.17
2017-10-06T12:13:37.410Z,63.07
2017-10-06T12:14:37.409Z,62.81
2017-10-06T12:15:37.410Z,62.62
2017-10-06T12:16:37.418Z,62.81
2017-10-06T12:17:37.411Z,62.24
2017-10-06T12:18:37.412Z,61.38
2017-10-06T12:19:37.411Z,61.96
2017-10-06T12:20:37.413Z,61.51
2017-10-06T12:21:37.414Z,60.75
2017-10-06T12:22:37.415Z,61.51
2017-10-06T12:23:37.415Z,61.22
2017-10-06T12:24:37.415Z,58.94
2017-10-06T12:25:37.417Z,59.42
2017-10-06T12:26:37.418Z,58.08
2017-10-06T12:27:37.418Z,58.78
2017-10-06T12:28:37.420Z,58.65
2017-10-06T12:29:37.421Z,59.80
2017-10-06T12:30:37.422Z,59.16
2017-10-06T12:31:37.421Z,59.83
2017-10-06T12:32:37.424Z,58.69
2017-10-06T12:33:37.431Z,59.83
2017-10-06T12:34:37.427Z,58.40
2017-10-06T12:35:37.428Z,58.11
2017-10-06T12:36:37.428Z,58.30
2017-10-06T12:37:37.432Z,59.35
2017-10-06T12:38:37.431Z,60.08
2017-10-06T12:39:37.432Z,59.23
2017-10-06T12:40:37.432Z,60.18
2017-10-06T12:41:37.435Z,60.75
2017-10-06T12:42:37.437Z,61.51
2017-10-06T12:43:37.438Z,62.08
2017-10-06T12:44:37.439Z,62.81
2017-10-06T12:45:37.440Z,63.01
2017-10-06T12:46:37.441Z,63.76
2017-10-06T12:47:37.441Z,62.81
2017-10-06T12:48:37.444Z,62.24
2017-10-06T12:49:37.444Z,62.05
2017-10-06T12:50:37.445Z,62.53
2017-10-06T12:51:37.445Z,62.15
2017-10-06T12:52:37.445Z,62.75